KPTW

Heritage Field Airport

Pottstown, Pennsylvania, USA
METAR KPTW 230454Z AUTO 00000KT 10SM OVC085 07/03 A3016 RMK AO2 SLP210 T00670033 401170000
Observed Flight Rules
Oct-23 @ 04:54 UTC (30 minutes ago) Visual Flight Rules
Visibility Clouds
10 miles
  • Overcast at 8,500' AGL
Temperatures Readings
Current 7°C / 45°F
Dewpoint 3°C / 37°F
Humidity 76%
Altimeter 30.16" Hg
Pressure 1021 hPa
Elevation 92
METAR KPTW 230454Z AUTO 00000KT 10SM OVC085 07/03 A3016 RMK AO2 SLP210 T00670033 401170000
Observed Flight Rules
Oct-23 @ 04:54 UTC
(30 minutes ago)
VFR
Clouds
  • Overcast at 8,500' AGL
Temperature Dewpoint
7°C / 45°F 3°C / 37°F
Humidity Altimeter Pressure
76% 30.16" Hg 1021 hPa